createdAt,value
2019-01-05T00:00:01.071Z,1010.1
2019-01-05T00:01:02.465Z,1010.1
2019-01-05T00:02:03.884Z,1010.1
2019-01-05T00:03:05.255Z,1010.1
2019-01-05T00:04:06.627Z,1010.0
2019-01-05T00:05:08.022Z,1010.0
2019-01-05T00:06:09.415Z,1010.0
2019-01-05T00:07:10.786Z,1010.0
2019-01-05T00:08:12.181Z,1010.0
2019-01-05T00:09:13.552Z,1010.0
2019-01-05T00:10:14.965Z,1010.0
2019-01-05T00:11:16.326Z,1010.0
2019-01-05T00:12:17.707Z,1010.0
2019-01-05T00:13:19.080Z,1010.0
2019-01-05T00:14:20.447Z,1010.0
2019-01-05T00:15:21.819Z,1010.0
2019-01-05T00:16:23.200Z,1010.0
2019-01-05T00:17:24.600Z,1010.0
2019-01-05T00:18:25.974Z,1010.0
2019-01-05T00:19:27.349Z,1009.9
2019-01-05T00:20:28.749Z,1009.9
2019-01-05T00:21:30.120Z,1009.9
2019-01-05T00:22:31.496Z,1009.9
2019-01-05T00:23:32.861Z,1009.9
2019-01-05T00:24:34.617Z,1009.9
2019-01-05T00:25:35.989Z,1009.9
2019-01-05T00:26:37.360Z,1009.9
2019-01-05T00:27:38.768Z,1009.9
2019-01-05T00:28:40.167Z,1009.9
2019-01-05T00:29:41.534Z,1010.0
2019-01-05T00:30:42.922Z,1009.9
2019-01-05T00:31:44.356Z,1009.9
2019-01-05T00:32:45.721Z,1009.9
2019-01-05T00:33:47.112Z,1009.9
2019-01-05T00:34:48.502Z,1010.0
2019-01-05T00:35:49.866Z,1010.0
2019-01-05T00:36:51.247Z,1010.0
2019-01-05T00:37:52.613Z,1010.0
2019-01-05T00:38:53.997Z,1009.9
2019-01-05T00:39:55.428Z,1009.9
2019-01-05T00:40:56.817Z,1009.9
2019-01-05T00:41:58.192Z,1009.9
2019-01-05T00:42:59.584Z,1010.0
2019-01-05T00:44:00.953Z,1009.9
2019-01-05T00:45:02.322Z,1009.9
2019-01-05T00:46:03.701Z,1009.9
2019-01-05T00:47:05.115Z,1009.9
2019-01-05T00:48:06.523Z,1009.9
2019-01-05T00:49:07.916Z,1009.8
2019-01-05T00:50:09.317Z,1009.8
2019-01-05T00:51:10.765Z,1009.9
2019-01-05T00:52:12.135Z,1009.8
2019-01-05T00:53:13.511Z,1009.8
2019-01-05T00:54:14.870Z,1009.9
2019-01-05T00:55:16.261Z,1009.9
2019-01-05T00:56:17.647Z,1009.9
2019-01-05T00:57:19.058Z,1009.9
2019-01-05T00:58:20.476Z,1009.9
2019-01-05T00:59:21.842Z,1009.9
2019-01-05T01:00:23.226Z,1009.9
2019-01-05T01:01:24.602Z,1010.0
2019-01-05T01:02:25.994Z,1010.0
2019-01-05T01:03:27.370Z,1010.0
2019-01-05T01:04:28.972Z,1010.0
2019-01-05T01:05:30.307Z,1010.0
2019-01-05T01:06:31.686Z,1009.9
2019-01-05T01:07:33.052Z,1010.0
2019-01-05T01:08:34.421Z,1010.0
2019-01-05T01:09:35.825Z,1010.0
2019-01-05T01:10:37.171Z,1010.0
2019-01-05T01:11:38.631Z,1009.9
2019-01-05T01:12:40.089Z,1009.9
2019-01-05T01:13:41.450Z,1009.9
2019-01-05T01:14:42.819Z,1009.9
2019-01-05T01:15:44.197Z,1009.9
2019-01-05T01:16:45.636Z,1009.9
2019-01-05T01:17:47.042Z,1009.9
2019-01-05T01:18:48.425Z,1009.9
2019-01-05T01:19:49.808Z,1009.9
2019-01-05T01:20:51.175Z,1009.9
2019-01-05T01:21:52.543Z,1009.9
2019-01-05T01:22:53.905Z,1009.9
2019-01-05T01:23:55.274Z,1009.9
2019-01-05T01:24:56.691Z,1009.9
2019-01-05T01:25:58.059Z,1009.9
2019-01-05T01:26:59.474Z,1009.9
2019-01-05T01:28:00.844Z,1009.9
2019-01-05T01:29:02.213Z,1009.9
2019-01-05T01:30:03.613Z,1009.9
2019-01-05T01:31:05.048Z,1009.9
2019-01-05T01:32:06.417Z,1009.9
2019-01-05T01:33:07.789Z,1009.9
2019-01-05T01:34:09.247Z,1009.9
2019-01-05T01:35:10.589Z,1009.9
2019-01-05T01:36:11.967Z,1009.9
2019-01-05T01:37:13.339Z,1009.8
2019-01-05T01:38:14.718Z,1009.9
2019-01-05T01:39:16.089Z,1009.9
2019-01-05T01:40:17.487Z,1009.9
2019-01-05T01:41:18.883Z,1010.0
2019-01-05T01:42:20.261Z,1009.9
2019-01-05T01:43:21.916Z,1009.9
2019-01-05T01:44:23.310Z,1009.9
2019-01-05T01:45:24.671Z,1009.9
2019-01-05T01:46:26.049Z,1009.9
2019-01-05T01:47:27.437Z,1009.9
2019-01-05T01:48:28.839Z,1009.9
2019-01-05T01:49:30.272Z,1009.9
2019-01-05T01:50:31.658Z,1009.8
2019-01-05T01:51:33.395Z,1009.9
2019-01-05T01:52:34.971Z,1009.9
2019-01-05T01:53:36.330Z,1009.9
2019-01-05T01:54:37.723Z,1009.9
2019-01-05T01:55:39.103Z,1009.9
2019-01-05T01:56:40.492Z,1009.9
2019-01-05T01:57:41.867Z,1009.9
2019-01-05T01:58:43.351Z,1009.9
2019-01-05T01:59:44.767Z,1009.9
2019-01-05T02:00:46.206Z,1009.9
2019-01-05T02:01:47.623Z,1009.9
2019-01-05T02:02:49.077Z,1009.8
2019-01-05T02:03:50.509Z,1009.9
2019-01-05T02:04:51.926Z,1009.9
2019-01-05T02:05:53.382Z,1009.9
2019-01-05T02:06:55.006Z,1009.9
2019-01-05T02:07:56.486Z,1009.9
2019-01-05T02:08:58.040Z,1009.9
2019-01-05T02:09:59.439Z,1009.9
2019-01-05T02:11:00.834Z,1009.8
2019-01-05T02:12:02.305Z,1009.8
2019-01-05T02:13:03.693Z,1009.8
2019-01-05T02:14:05.060Z,1009.7
2019-01-05T02:15:06.447Z,1009.7
2019-01-05T02:16:07.814Z,1009.7
2019-01-05T02:17:09.217Z,1009.7
2019-01-05T02:18:10.664Z,1009.7
2019-01-05T02:19:12.035Z,1009.6
2019-01-05T02:20:13.426Z,1009.7
2019-01-05T02:21:14.793Z,1009.6
2019-01-05T02:22:16.192Z,1009.6
2019-01-05T02:23:17.681Z,1009.6
2019-01-05T02:24:19.053Z,1009.5
2019-01-05T02:25:20.422Z,1009.5
2019-01-05T02:26:21.842Z,1009.5
2019-01-05T02:27:23.219Z,1009.5
2019-01-05T02:28:24.625Z,1009.5
2019-01-05T02:29:26.221Z,1009.5
2019-01-05T02:30:27.593Z,1009.5
2019-01-05T02:31:28.990Z,1009.5
2019-01-05T02:32:30.350Z,1009.4
2019-01-05T02:33:31.724Z,1009.5
2019-01-05T02:34:33.099Z,1009.4
2019-01-05T02:35:34.458Z,1009.4
2019-01-05T02:36:35.827Z,1009.4
2019-01-05T02:37:37.204Z,1009.4
2019-01-05T02:38:38.565Z,1009.4
2019-01-05T02:39:39.948Z,1009.3
2019-01-05T02:40:41.328Z,1009.3
2019-01-05T02:41:42.694Z,1009.2
2019-01-05T02:42:44.115Z,1009.2
2019-01-05T02:43:45.486Z,1009.2
2019-01-05T02:44:46.867Z,1009.2
2019-01-05T02:45:48.299Z,1009.2
2019-01-05T02:46:49.623Z,1009.2
2019-01-05T02:47:51.015Z,1009.2
2019-01-05T02:48:52.435Z,1009.1
2019-01-05T02:49:53.820Z,1009.1
2019-01-05T02:50:55.188Z,1009.1
2019-01-05T02:51:56.558Z,1009.1
2019-01-05T02:52:57.939Z,1009.1
2019-01-05T02:53:59.302Z,1009.0
2019-01-05T02:55:00.671Z,1009.1
2019-01-05T02:56:02.038Z,1009.0
2019-01-05T02:57:03.433Z,1009.0
2019-01-05T02:58:04.811Z,1009.0
2019-01-05T02:59:06.232Z,1008.9
2019-01-05T03:00:07.603Z,1008.9
2019-01-05T03:01:08.990Z,1008.9
2019-01-05T03:02:10.352Z,1008.8
2019-01-05T03:03:11.736Z,1008.8
2019-01-05T03:04:13.091Z,1008.8
2019-01-05T03:05:14.460Z,1008.7
2019-01-05T03:06:15.833Z,1008.7
2019-01-05T03:07:17.200Z,1008.7
2019-01-05T03:08:18.611Z,1008.7
2019-01-05T03:09:19.959Z,1008.7
2019-01-05T03:10:21.319Z,1008.7
2019-01-05T03:11:22.699Z,1008.7
2019-01-05T03:12:24.067Z,1008.7
2019-01-05T03:13:25.442Z,1008.7
2019-01-05T03:14:26.811Z,1008.7
2019-01-05T03:15:28.182Z,1008.7
2019-01-05T03:16:29.599Z,1008.7
2019-01-05T03:17:30.961Z,1008.7
2019-01-05T03:18:32.337Z,1008.7
2019-01-05T03:19:33.738Z,1008.7
2019-01-05T03:20:35.109Z,1008.7
2019-01-05T03:21:36.503Z,1008.7
2019-01-05T03:22:37.859Z,1008.7
2019-01-05T03:23:39.258Z,1008.7
2019-01-05T03:24:40.598Z,1008.6
2019-01-05T03:25:41.973Z,1008.6
2019-01-05T03:26:43.334Z,1008.6
2019-01-05T03:27:44.744Z,1008.6
2019-01-05T03:28:46.137Z,1008.6
2019-01-05T03:29:47.507Z,1008.5
2019-01-05T03:30:48.867Z,1008.5
2019-01-05T03:31:50.241Z,1008.5
2019-01-05T03:32:51.596Z,1008.5
2019-01-05T03:33:52.984Z,1008.5
2019-01-05T03:34:54.355Z,1008.4
2019-01-05T03:35:55.726Z,1008.5
2019-01-05T03:36:57.099Z,1008.4
2019-01-05T03:37:58.475Z,1008.4
2019-01-05T03:38:59.860Z,1008.4
2019-01-05T03:40:01.223Z,1008.4
2019-01-05T03:41:02.601Z,1008.4
2019-01-05T03:42:03.961Z,1008.3
2019-01-05T03:43:05.340Z,1008.3
2019-01-05T03:44:06.719Z,1008.3
2019-01-05T03:45:08.075Z,1008.2
2019-01-05T03:46:09.451Z,1008.3
2019-01-05T03:47:10.827Z,1008.2
2019-01-05T03:48:12.185Z,1008.2
2019-01-05T03:49:13.561Z,1008.1
2019-01-05T03:50:14.943Z,1008.1
2019-01-05T03:51:16.306Z,1008.1
2019-01-05T03:52:17.686Z,1008.1
2019-01-05T03:53:19.048Z,1008.1
2019-01-05T03:54:20.492Z,1008.1
2019-01-05T03:55:21.865Z,1008.0
2019-01-05T03:56:23.230Z,1008.1
2019-01-05T03:57:24.598Z,1008.1
2019-01-05T03:58:25.967Z,1008.1
2019-01-05T03:59:27.330Z,1008.0
2019-01-05T04:00:28.713Z,1008.1
2019-01-05T04:01:30.082Z,1008.1
2019-01-05T04:02:31.462Z,1008.1
2019-01-05T04:03:32.824Z,1008.1
2019-01-05T04:04:34.191Z,1008.1
2019-01-05T04:05:35.615Z,1008.1
2019-01-05T04:06:36.989Z,1008.1
2019-01-05T04:07:38.357Z,1008.1
2019-01-05T04:08:39.722Z,1008.1
2019-01-05T04:09:41.091Z,1008.1
2019-01-05T04:10:42.471Z,1008.0
2019-01-05T04:11:43.894Z,1008.1
2019-01-05T04:12:45.269Z,1008.0
2019-01-05T04:13:46.651Z,1008.1
2019-01-05T04:14:48.009Z,1008.1
2019-01-05T04:15:49.435Z,1008.1
2019-01-05T04:16:50.810Z,1008.1
2019-01-05T04:17:52.175Z,1008.1
2019-01-05T04:18:53.539Z,1008.0
2019-01-05T04:19:54.908Z,1008.0
2019-01-05T04:20:56.274Z,1008.0
2019-01-05T04:21:57.648Z,1008.0
2019-01-05T04:22:59.016Z,1007.9
2019-01-05T04:24:00.425Z,1007.9
2019-01-05T04:25:01.801Z,1007.9
2019-01-05T04:26:03.161Z,1007.9
2019-01-05T04:27:04.549Z,1007.9
2019-01-05T04:28:05.921Z,1008.0
2019-01-05T04:29:07.364Z,1008.0
2019-01-05T04:30:08.761Z,1007.9
2019-01-05T04:31:10.125Z,1008.0
2019-01-05T04:32:11.506Z,1007.9
2019-01-05T04:33:12.883Z,1007.9
2019-01-05T04:34:14.254Z,1007.8
2019-01-05T04:35:15.650Z,1007.9
2019-01-05T04:36:17.027Z,1007.8
2019-01-05T04:37:18.401Z,1007.8
2019-01-05T04:38:19.786Z,1007.8
2019-01-05T04:39:21.148Z,1007.7
2019-01-05T04:40:22.561Z,1007.7
2019-01-05T04:41:23.918Z,1007.7
2019-01-05T04:42:25.289Z,1007.8
2019-01-05T04:43:26.654Z,1007.7
2019-01-05T04:44:28.026Z,1007.7
2019-01-05T04:45:29.389Z,1007.7
2019-01-05T04:46:30.751Z,1007.7
2019-01-05T04:47:32.150Z,1007.7
2019-01-05T04:48:33.523Z,1007.7
2019-01-05T04:49:34.895Z,1007.7
2019-01-05T04:50:36.258Z,1007.7
2019-01-05T04:51:37.679Z,1007.7
2019-01-05T04:52:39.039Z,1007.7
2019-01-05T04:53:40.400Z,1007.7
2019-01-05T04:54:41.793Z,1007.6
2019-01-05T04:55:43.148Z,1007.7
2019-01-05T04:56:44.524Z,1007.7
2019-01-05T04:57:45.914Z,1007.6
2019-01-05T04:58:47.283Z,1007.6
2019-01-05T04:59:48.684Z,1007.6
2019-01-05T05:00:50.044Z,1007.6
2019-01-05T05:01:51.413Z,1007.5
2019-01-05T05:02:52.782Z,1007.6
2019-01-05T05:03:54.156Z,1007.6
2019-01-05T05:04:55.516Z,1007.6
2019-01-05T05:05:56.879Z,1007.5
2019-01-05T05:06:58.243Z,1007.5
2019-01-05T05:07:59.614Z,1007.5
2019-01-05T05:09:00.981Z,1007.5
2019-01-05T05:10:02.344Z,1007.5
2019-01-05T05:11:03.718Z,1007.5
2019-01-05T05:12:05.096Z,1007.4
2019-01-05T05:13:06.462Z,1007.4
2019-01-05T05:14:07.840Z,1007.4
2019-01-05T05:15:09.258Z,1007.4
2019-01-05T05:16:10.631Z,1007.4
2019-01-05T05:17:12.001Z,1007.4
2019-01-05T05:18:13.383Z,1007.3
2019-01-05T05:19:14.746Z,1007.3
2019-01-05T05:20:16.117Z,1007.3
2019-01-05T05:21:17.493Z,1007.3
2019-01-05T05:22:18.889Z,1007.3
2019-01-05T05:23:20.279Z,1007.3
2019-01-05T05:24:21.644Z,1007.3
2019-01-05T05:25:23.002Z,1007.2
2019-01-05T05:26:24.400Z,1007.3
2019-01-05T05:27:25.767Z,1007.2
2019-01-05T05:28:27.152Z,1007.3
2019-01-05T05:29:28.759Z,1007.3
2019-01-05T05:30:30.131Z,1007.3
2019-01-05T05:31:31.505Z,1007.2
2019-01-05T05:32:32.964Z,1007.2
2019-01-05T05:33:34.347Z,1007.2
2019-01-05T05:34:35.832Z,1007.2
2019-01-05T05:35:37.188Z,1007.1
2019-01-05T05:36:38.566Z,1007.1
2019-01-05T05:37:39.958Z,1007.1
2019-01-05T05:38:41.324Z,1007.2
2019-01-05T05:39:42.692Z,1007.1
2019-01-05T05:40:44.056Z,1007.2
2019-01-05T05:41:45.433Z,1007.2
2019-01-05T05:42:46.798Z,1007.1
2019-01-05T05:43:48.184Z,1007.1
2019-01-05T05:44:49.549Z,1007.1
2019-01-05T05:45:50.905Z,1007.0
2019-01-05T05:46:52.270Z,1007.0
2019-01-05T05:47:53.644Z,1007.0
2019-01-05T05:48:55.003Z,1007.0
2019-01-05T05:49:56.373Z,1006.9
2019-01-05T05:50:57.744Z,1006.9
2019-01-05T05:51:59.119Z,1006.9
2019-01-05T05:53:00.508Z,1006.9
2019-01-05T05:54:01.861Z,1006.9
2019-01-05T05:55:03.242Z,1006.9
2019-01-05T05:56:04.602Z,1006.9
2019-01-05T05:57:05.982Z,1006.8
2019-01-05T05:58:07.356Z,1006.8
2019-01-05T05:59:08.728Z,1006.8
2019-01-05T06:00:10.098Z,1006.7
2019-01-05T06:01:11.479Z,1006.8
2019-01-05T06:02:12.840Z,1006.8
2019-01-05T06:03:14.231Z,1006.8
2019-01-05T06:04:15.582Z,1006.8
2019-01-05T06:05:16.958Z,1006.8
2019-01-05T06:06:18.328Z,1006.8
2019-01-05T06:07:19.707Z,1006.8
2019-01-05T06:08:21.099Z,1006.8
2019-01-05T06:09:22.468Z,1006.8
2019-01-05T06:10:23.847Z,1006.8
2019-01-05T06:11:25.202Z,1006.8
2019-01-05T06:12:26.583Z,1006.8
2019-01-05T06:13:27.952Z,1006.8
2019-01-05T06:14:30.636Z,1006.8
2019-01-05T06:15:30.654Z,1006.9
2019-01-05T06:16:32.037Z,1006.8
2019-01-05T06:17:33.406Z,1006.9
2019-01-05T06:18:34.771Z,1006.9
2019-01-05T06:19:36.139Z,1006.9
2019-01-05T06:20:37.505Z,1006.9
2019-01-05T06:21:38.904Z,1006.9
2019-01-05T06:22:40.280Z,1006.9
2019-01-05T06:23:41.646Z,1006.8
2019-01-05T06:24:43.030Z,1006.8
2019-01-05T06:25:44.423Z,1006.8
2019-01-05T06:26:45.792Z,1006.8
2019-01-05T06:27:47.168Z,1006.8
2019-01-05T06:28:48.540Z,1006.8
2019-01-05T06:29:49.907Z,1006.8
2019-01-05T06:30:51.266Z,1006.7
2019-01-05T06:31:52.630Z,1006.6
2019-01-05T06:32:53.999Z,1006.6
2019-01-05T06:33:55.368Z,1006.6
2019-01-05T06:34:56.742Z,1006.5
2019-01-05T06:35:58.111Z,1006.6
2019-01-05T06:36:59.471Z,1006.5
2019-01-05T06:38:00.842Z,1006.5
2019-01-05T06:39:02.219Z,1006.5
2019-01-05T06:40:03.649Z,1006.5
2019-01-05T06:41:05.020Z,1006.6
2019-01-05T06:42:06.394Z,1006.6
2019-01-05T06:43:07.763Z,1006.6
2019-01-05T06:44:09.200Z,1006.6
2019-01-05T06:45:10.524Z,1006.6
2019-01-05T06:46:11.888Z,1006.6
2019-01-05T06:47:13.261Z,1006.6
2019-01-05T06:48:14.637Z,1006.5
2019-01-05T06:49:16.008Z,1006.5
2019-01-05T06:50:17.372Z,1006.5
2019-01-05T06:51:18.738Z,1006.5
2019-01-05T06:52:20.106Z,1006.6
2019-01-05T06:53:21.472Z,1006.5
2019-01-05T06:54:22.879Z,1006.5
2019-01-05T06:55:24.228Z,1006.5
2019-01-05T06:56:25.630Z,1006.5
2019-01-05T06:57:26.995Z,1006.4
2019-01-05T06:58:28.364Z,1006.5
2019-01-05T06:59:29.739Z,1006.5
2019-01-05T07:00:31.107Z,1006.5
2019-01-05T07:01:32.471Z,1006.5
2019-01-05T07:02:33.856Z,1006.5
2019-01-05T07:03:35.227Z,1006.5
2019-01-05T07:04:36.597Z,1006.5
2019-01-05T07:05:37.974Z,1006.5
2019-01-05T07:06:39.344Z,1006.5
2019-01-05T07:07:40.715Z,1006.5
2019-01-05T07:08:42.100Z,1006.5
2019-01-05T07:09:43.466Z,1006.4
2019-01-05T07:10:44.836Z,1006.3
2019-01-05T07:11:46.222Z,1006.3
2019-01-05T07:12:47.601Z,1006.3
2019-01-05T07:13:48.967Z,1006.3
2019-01-05T07:14:50.331Z,1006.3
2019-01-05T07:15:51.699Z,1006.3
2019-01-05T07:16:53.068Z,1006.3
2019-01-05T07:17:54.444Z,1006.3
2019-01-05T07:18:55.811Z,1006.4
2019-01-05T07:19:57.202Z,1006.3
2019-01-05T07:20:58.570Z,1006.4
2019-01-05T07:21:59.944Z,1006.4
2019-01-05T07:23:01.324Z,1006.4
2019-01-05T07:24:02.713Z,1006.3
2019-01-05T07:25:04.080Z,1006.4
2019-01-05T07:26:05.465Z,1006.4
2019-01-05T07:27:06.834Z,1006.5
2019-01-05T07:28:08.202Z,1006.6
2019-01-05T07:29:09.572Z,1006.6
2019-01-05T07:30:10.926Z,1006.6
2019-01-05T07:31:12.302Z,1006.6
2019-01-05T07:32:13.686Z,1006.5
2019-01-05T07:33:15.052Z,1006.5
2019-01-05T07:34:16.427Z,1006.5
2019-01-05T07:35:17.803Z,1006.4
2019-01-05T07:36:19.176Z,1006.4
2019-01-05T07:37:20.545Z,1006.4
2019-01-05T07:38:21.930Z,1006.4
2019-01-05T07:39:23.283Z,1006.3
2019-01-05T07:40:24.646Z,1006.3
2019-01-05T07:41:26.010Z,1006.3
2019-01-05T07:42:27.394Z,1006.2
2019-01-05T07:43:28.757Z,1006.3
2019-01-05T07:44:30.132Z,1006.3
2019-01-05T07:45:31.514Z,1006.3
2019-01-05T07:46:32.891Z,1006.3
2019-01-05T07:47:34.267Z,1006.3
2019-01-05T07:48:35.645Z,1006.3
2019-01-05T07:49:36.997Z,1006.3
2019-01-05T07:50:38.364Z,1006.3
2019-01-05T07:51:39.731Z,1006.3
2019-01-05T07:52:41.100Z,1006.3
2019-01-05T07:53:42.472Z,1006.4
2019-01-05T07:54:43.889Z,1006.4
2019-01-05T07:55:45.293Z,1006.4
2019-01-05T07:56:46.658Z,1006.4
2019-01-05T07:57:48.021Z,1006.3
2019-01-05T07:58:49.399Z,1006.3
2019-01-05T07:59:50.766Z,1006.3
2019-01-05T08:00:52.319Z,1006.3
2019-01-05T08:01:53.480Z,1006.2
2019-01-05T08:02:54.842Z,1006.3
2019-01-05T08:03:56.243Z,1006.3
2019-01-05T08:04:57.607Z,1006.3
2019-01-05T08:05:58.988Z,1006.3
2019-01-05T08:07:00.352Z,1006.3
2019-01-05T08:08:01.728Z,1006.2
2019-01-05T08:09:03.091Z,1006.2
2019-01-05T08:10:04.461Z,1006.2
2019-01-05T08:11:05.827Z,1006.2
2019-01-05T08:12:07.192Z,1006.2
2019-01-05T08:13:08.558Z,1006.1
2019-01-05T08:14:09.931Z,1006.2
2019-01-05T08:15:11.308Z,1006.2
2019-01-05T08:16:12.667Z,1006.2
2019-01-05T08:17:14.040Z,1006.2
2019-01-05T08:18:15.401Z,1006.2
2019-01-05T08:19:16.767Z,1006.2
2019-01-05T08:20:18.139Z,1006.2
2019-01-05T08:21:19.506Z,1006.2
2019-01-05T08:22:20.886Z,1006.2
2019-01-05T08:23:22.243Z,1006.2
2019-01-05T08:24:23.615Z,1006.3
2019-01-05T08:25:24.982Z,1006.3
2019-01-05T08:26:26.372Z,1006.3
2019-01-05T08:27:27.751Z,1006.3
2019-01-05T08:28:29.165Z,1006.3
2019-01-05T08:29:30.538Z,1006.3
2019-01-05T08:30:31.938Z,1006.3
2019-01-05T08:31:33.303Z,1006.3
2019-01-05T08:32:34.669Z,1006.3
2019-01-05T08:33:36.065Z,1006.3
2019-01-05T08:34:37.415Z,1006.3
2019-01-05T08:35:38.787Z,1006.2
2019-01-05T08:36:40.168Z,1006.2
2019-01-05T08:37:41.535Z,1006.2
2019-01-05T08:38:42.991Z,1006.2
2019-01-05T08:39:44.446Z,1006.2
2019-01-05T08:40:45.821Z,1006.1
2019-01-05T08:41:47.194Z,1006.2
2019-01-05T08:42:48.601Z,1006.2
2019-01-05T08:43:49.930Z,1006.2
2019-01-05T08:44:51.298Z,1006.2
2019-01-05T08:45:52.663Z,1006.1
2019-01-05T08:46:54.039Z,1006.2
2019-01-05T08:47:55.415Z,1006.2
2019-01-05T08:48:56.786Z,1006.2
2019-01-05T08:49:58.158Z,1006.2
2019-01-05T08:50:59.562Z,1006.2
2019-01-05T08:52:00.918Z,1006.2
2019-01-05T08:53:02.301Z,1006.2
2019-01-05T08:54:03.693Z,1006.2
2019-01-05T08:55:05.067Z,1006.3
2019-01-05T08:56:06.446Z,1006.2
2019-01-05T08:57:07.820Z,1006.2
2019-01-05T08:58:09.192Z,1006.2
2019-01-05T08:59:10.559Z,1006.1
2019-01-05T09:00:12.126Z,1006.1
2019-01-05T09:01:13.636Z,1006.1
2019-01-05T09:02:15.084Z,1006.1
2019-01-05T09:03:16.411Z,1006.1
2019-01-05T09:04:17.966Z,1006.1
2019-01-05T09:05:19.381Z,1006.0
2019-01-05T09:06:20.754Z,1006.0
2019-01-05T09:07:22.179Z,1006.0
2019-01-05T09:08:23.582Z,1006.0
2019-01-05T09:09:24.942Z,1006.0
2019-01-05T09:10:26.343Z,1006.0
2019-01-05T09:11:27.736Z,1006.0
2019-01-05T09:12:29.128Z,1006.0
2019-01-05T09:13:30.479Z,1006.0
2019-01-05T09:14:31.960Z,1005.9
2019-01-05T09:15:33.337Z,1006.0
2019-01-05T09:16:34.736Z,1005.9
2019-01-05T09:17:36.087Z,1005.9
2019-01-05T09:18:37.457Z,1005.9
2019-01-05T09:19:38.828Z,1005.9
2019-01-05T09:20:40.293Z,1005.9
2019-01-05T09:21:41.702Z,1005.9
2019-01-05T09:22:43.072Z,1005.9
2019-01-05T09:23:44.437Z,1005.9
2019-01-05T09:24:45.814Z,1005.9
2019-01-05T09:25:47.247Z,1005.8
2019-01-05T09:26:48.640Z,1005.8
2019-01-05T09:27:49.995Z,1005.8
2019-01-05T09:28:51.383Z,1005.8
2019-01-05T09:29:52.790Z,1005.7
2019-01-05T09:30:54.154Z,1005.8
2019-01-05T09:31:55.569Z,1005.8
2019-01-05T09:32:56.947Z,1005.8
2019-01-05T09:33:58.271Z,1005.7
2019-01-05T09:34:59.638Z,1005.7
2019-01-05T09:36:01.001Z,1005.7
2019-01-05T09:37:02.362Z,1005.7
2019-01-05T09:38:03.750Z,1005.8
2019-01-05T09:39:05.113Z,1005.8
2019-01-05T09:40:06.478Z,1005.7
2019-01-05T09:41:07.856Z,1005.7
2019-01-05T09:42:09.248Z,1005.8
2019-01-05T09:43:10.602Z,1005.7
2019-01-05T09:44:11.977Z,1005.8
2019-01-05T09:45:13.338Z,1005.7
2019-01-05T09:46:14.713Z,1005.7
2019-01-05T09:47:16.091Z,1005.6
2019-01-05T09:48:17.459Z,1005.7
2019-01-05T09:49:18.835Z,1005.7
2019-01-05T09:50:20.189Z,1005.6
2019-01-05T09:51:21.573Z,1005.7
2019-01-05T09:52:22.943Z,1005.7
2019-01-05T09:53:24.311Z,1005.7
2019-01-05T09:54:25.712Z,1005.7
2019-01-05T09:55:27.078Z,1005.6
2019-01-05T09:56:28.462Z,1005.6
2019-01-05T09:57:29.852Z,1005.7
2019-01-05T09:58:31.216Z,1005.7
2019-01-05T09:59:32.594Z,1005.6
2019-01-05T10:00:34.004Z,1005.7
2019-01-05T10:01:35.371Z,1005.7
2019-01-05T10:02:36.756Z,1005.7
2019-01-05T10:03:38.133Z,1005.7
2019-01-05T10:04:39.526Z,1005.7
2019-01-05T10:05:40.898Z,1005.8
2019-01-05T10:06:42.324Z,1005.8
2019-01-05T10:07:43.703Z,1005.8
2019-01-05T10:08:45.077Z,1005.8
2019-01-05T10:09:46.481Z,1005.7
2019-01-05T10:10:47.843Z,1005.7
2019-01-05T10:11:49.215Z,1005.8
2019-01-05T10:12:50.596Z,1005.8
2019-01-05T10:13:51.964Z,1005.7
2019-01-05T10:14:53.351Z,1005.7
2019-01-05T10:15:54.728Z,1005.8
2019-01-05T10:16:56.090Z,1005.8
2019-01-05T10:17:57.459Z,1005.8
2019-01-05T10:18:58.822Z,1005.8
2019-01-05T10:20:00.218Z,1005.8
2019-01-05T10:21:01.554Z,1005.8
2019-01-05T10:22:02.926Z,1005.8
2019-01-05T10:23:04.290Z,1005.8
2019-01-05T10:24:05.665Z,1005.8
2019-01-05T10:25:07.028Z,1005.8
2019-01-05T10:26:08.430Z,1005.8
2019-01-05T10:27:09.774Z,1005.8
2019-01-05T10:28:11.139Z,1005.8
2019-01-05T10:29:12.515Z,1005.8
2019-01-05T10:30:13.906Z,1005.9
2019-01-05T10:31:15.432Z,1005.8
2019-01-05T10:32:16.825Z,1005.8
2019-01-05T10:33:18.225Z,1005.8
2019-01-05T10:34:19.595Z,1005.8
2019-01-05T10:35:20.964Z,1005.8
2019-01-05T10:36:22.360Z,1005.8
2019-01-05T10:37:23.714Z,1005.7
2019-01-05T10:38:25.094Z,1005.7
2019-01-05T10:39:26.463Z,1005.7
2019-01-05T10:40:27.847Z,1005.7
2019-01-05T10:41:29.207Z,1005.7
2019-01-05T10:42:30.580Z,1005.7
2019-01-05T10:43:31.957Z,1005.7
2019-01-05T10:44:33.319Z,1005.7
2019-01-05T10:45:34.878Z,1005.7
2019-01-05T10:46:36.212Z,1005.7
2019-01-05T10:47:37.578Z,1005.7
2019-01-05T10:48:38.952Z,1005.6
2019-01-05T10:49:40.372Z,1005.6
2019-01-05T10:50:41.758Z,1005.7
2019-01-05T10:51:43.135Z,1005.7
2019-01-05T10:52:44.510Z,1005.7
2019-01-05T10:53:45.916Z,1005.7
2019-01-05T10:54:47.329Z,1005.7
2019-01-05T10:55:48.757Z,1005.7
2019-01-05T10:56:50.099Z,1005.6
2019-01-05T10:57:51.470Z,1005.7
2019-01-05T10:58:52.901Z,1005.6
2019-01-05T10:59:54.269Z,1005.6
2019-01-05T11:00:55.634Z,1005.6
2019-01-05T11:01:57.018Z,1005.6
2019-01-05T11:02:58.374Z,1005.7
2019-01-05T11:03:59.759Z,1005.7
2019-01-05T11:05:01.125Z,1005.6
2019-01-05T11:06:02.512Z,1005.7
2019-01-05T11:07:03.869Z,1005.7
2019-01-05T11:08:05.246Z,1005.6
2019-01-05T11:09:06.608Z,1005.6
2019-01-05T11:10:07.993Z,1005.6
2019-01-05T11:11:09.358Z,1005.6
2019-01-05T11:12:10.732Z,1005.6
2019-01-05T11:13:12.101Z,1005.6
2019-01-05T11:14:13.547Z,1005.6
2019-01-05T11:15:14.874Z,1005.6
2019-01-05T11:16:16.294Z,1005.6
2019-01-05T11:17:17.630Z,1005.6
2019-01-05T11:18:19.077Z,1005.6
2019-01-05T11:19:21.221Z,1005.7
2019-01-05T11:20:22.476Z,1005.6
2019-01-05T11:21:23.820Z,1005.6
2019-01-05T11:22:25.214Z,1005.6
2019-01-05T11:23:26.594Z,1005.6
2019-01-05T11:24:27.944Z,1005.6
2019-01-05T11:25:29.349Z,1005.6
2019-01-05T11:26:30.709Z,1005.6
2019-01-05T11:27:32.121Z,1005.5
2019-01-05T11:28:33.556Z,1005.6
2019-01-05T11:29:34.926Z,1005.5
2019-01-05T11:30:36.286Z,1005.6
2019-01-05T11:31:37.684Z,1005.5
2019-01-05T11:32:39.054Z,1005.5
2019-01-05T11:33:40.428Z,1005.5
2019-01-05T11:34:41.802Z,1005.5
2019-01-05T11:35:43.173Z,1005.5
2019-01-05T11:36:44.536Z,1005.6
2019-01-05T11:37:45.962Z,1005.5
2019-01-05T11:38:47.328Z,1005.5
2019-01-05T11:39:48.798Z,1005.5
2019-01-05T11:40:50.170Z,1005.5
2019-01-05T11:41:51.544Z,1005.5
2019-01-05T11:42:52.924Z,1005.5
2019-01-05T11:43:54.303Z,1005.5
2019-01-05T11:44:55.659Z,1005.5
2019-01-05T11:45:57.049Z,1005.5
2019-01-05T11:46:58.415Z,1005.5
2019-01-05T11:47:59.798Z,1005.5
2019-01-05T11:49:01.169Z,1005.5
2019-01-05T11:50:02.542Z,1005.4
2019-01-05T11:51:03.936Z,1005.4
2019-01-05T11:52:05.311Z,1005.5
2019-01-05T11:53:06.707Z,1005.5
2019-01-05T11:54:08.096Z,1005.5
2019-01-05T11:55:09.491Z,1005.5
2019-01-05T11:56:10.924Z,1005.5
2019-01-05T11:57:12.276Z,1005.4
2019-01-05T11:58:13.698Z,1005.5
2019-01-05T11:59:15.073Z,1005.4
2019-01-05T12:00:16.476Z,1005.4
2019-01-05T12:01:17.859Z,1005.4
2019-01-05T12:02:19.729Z,1005.4
2019-01-05T12:03:20.548Z,1005.3
2019-01-05T12:04:21.930Z,1005.4
2019-01-05T12:05:23.333Z,1005.3
2019-01-05T12:06:24.733Z,1005.3
2019-01-05T12:07:26.084Z,1005.3
2019-01-05T12:08:27.459Z,1005.3
2019-01-05T12:09:28.855Z,1005.3
2019-01-05T12:10:30.232Z,1005.2
2019-01-05T12:11:31.598Z,1005.2
2019-01-05T12:12:32.964Z,1005.2
2019-01-05T12:13:34.345Z,1005.2
2019-01-05T12:14:35.716Z,1005.2
2019-01-05T12:15:37.091Z,1005.2
2019-01-05T12:16:40.947Z,1005.2
2019-01-05T12:17:39.828Z,1005.3
2019-01-05T12:18:41.226Z,1005.3
2019-01-05T12:19:42.589Z,1005.3
2019-01-05T12:20:43.955Z,1005.2
2019-01-05T12:21:45.334Z,1005.3
2019-01-05T12:22:46.731Z,1005.3
2019-01-05T12:23:48.130Z,1005.2
2019-01-05T12:24:49.556Z,1005.3
2019-01-05T12:25:50.991Z,1005.3
2019-01-05T12:26:52.354Z,1005.2
2019-01-05T12:27:53.767Z,1005.2
2019-01-05T12:28:55.147Z,1005.2
2019-01-05T12:29:56.573Z,1005.2
2019-01-05T12:30:57.904Z,1005.2
2019-01-05T12:31:59.279Z,1005.2
2019-01-05T12:33:00.682Z,1005.1
2019-01-05T12:34:02.046Z,1005.1
2019-01-05T12:35:03.411Z,1005.1
2019-01-05T12:36:04.787Z,1005.1
2019-01-05T12:37:06.268Z,1005.1
2019-01-05T12:38:07.518Z,1005.1
2019-01-05T12:39:08.883Z,1005.1
2019-01-05T12:40:10.255Z,1005.1
2019-01-05T12:41:11.626Z,1005.1
2019-01-05T12:42:13.030Z,1005.1
2019-01-05T12:43:14.396Z,1005.1
2019-01-05T12:44:15.779Z,1005.2
2019-01-05T12:45:17.184Z,1005.2